Impacts TAF Board
For situational awareness. Not to be used for flight planning purposes.
IDs:

PAFA - Fairbanks Intl, AK, US

Issued at 2333 UTC 28 Nov 2020
Updated at 0138 UTC 29 Nov 2020
Potential Impact None Slight Moderate High
Time0053Z 29/02Z 29/03Z 29/04Z 29/05Z 29/06Z 29/07Z 29/08Z 29/09Z 29/10Z 29/11Z 29/12Z 29/13Z 29/14Z>>
Type OBS PRVL PRVL PRVL PRVL PRVL PRVL PRVL PRVL PRVL PRVL PRVL PRVL PRVL
VIS 10 >6 >6 >6 >6 >6 >6 >6 >6 >6 >6 >6 >6 >6
CIG 180 200 200 200 200 50 50 50 50 50 50 50 50 50
Cover OVC BKN BKN BKN BKN BKN BKN BKN BKN BKN BKN BKN BKN BKN
FltCat VFR VFR VFR VFR VFR VFR VFR VFR VFR VFR VFR VFR VFR VFR
WX -- -- -- -- -- VCSH VCSH VCSH VCSH VCSH VCSH VCSH VCSH VCSH
WDir VRB VRB VRB VRB VRB 20 20 20 20 20 20 20 20 20
WSpd 0 0 0 0 0 4 4 4 4 4 4 4 4 4
WGst -- -- -- -- -- -- -- -- -- -- -- -- -- --
Raw TAF
PAFA 282333Z 2900/3006 00000KT P6SM SCT150 BKN200
  FM290600 02004KT P6SM VCSH BKN050
  FM291800 00000KT 4SM -SN BR SCT015 OVC025


Raw METAR
PAFA 290053Z 00000KT 10SM SCT140 OVC180 M16/M19 A2892 RMK AO2 SLP807 T11611189
PAFA 282353Z 00000KT 10SM SCT140 BKN180 M18/M21 A2894 RMK AO2 SLP813 T11781206 11167 21200 56038
PAFA 282253Z 00000KT 10SM SCT150 BKN200 M18/M20 A2897 RMK AO2 SLP824 T11781200

METAR Board
Radar Display
Forecast Discussion
For situational awareness. Not to be used for flight planning purposes.